sensor_id;sensor_type;location;lat;lon;timestamp;P1;durP1;ratioP1;P2;durP2;ratioP2
4980;SDS011;2507;50.392;7.482;2022-09-14T00:00:10;13.83;;;10.37;;
4980;SDS011;2507;50.392;7.482;2022-09-14T00:02:36;12.63;;;10.90;;
4980;SDS011;2507;50.392;7.482;2022-09-14T00:05:01;15.83;;;9.80;;
4980;SDS011;2507;50.392;7.482;2022-09-14T00:07:27;14.13;;;11.50;;
4980;SDS011;2507;50.392;7.482;2022-09-14T00:09:52;14.63;;;10.23;;
4980;SDS011;2507;50.392;7.482;2022-09-14T00:12:17;11.53;;;9.10;;
4980;SDS011;2507;50.392;7.482;2022-09-14T00:14:42;11.47;;;10.27;;
4980;SDS011;2507;50.392;7.482;2022-09-14T00:17:08;10.80;;;9.50;;
4980;SDS011;2507;50.392;7.482;2022-09-14T00:19:33;13.03;;;10.50;;
4980;SDS011;2507;50.392;7.482;2022-09-14T00:21:58;11.23;;;10.03;;
4980;SDS011;2507;50.392;7.482;2022-09-14T00:24:25;13.13;;;10.67;;
4980;SDS011;2507;50.392;7.482;2022-09-14T00:26:52;15.23;;;11.30;;
4980;SDS011;2507;50.392;7.482;2022-09-14T00:29:17;10.90;;;9.83;;
4980;SDS011;2507;50.392;7.482;2022-09-14T00:31:43;15.23;;;11.50;;
4980;SDS011;2507;50.392;7.482;2022-09-14T00:34:10;10.47;;;9.40;;
4980;SDS011;2507;50.392;7.482;2022-09-14T00:36:42;12.40;;;11.10;;
4980;SDS011;2507;50.392;7.482;2022-09-14T00:39:09;13.00;;;11.70;;
4980;SDS011;2507;50.392;7.482;2022-09-14T00:41:37;14.07;;;10.97;;
4980;SDS011;2507;50.392;7.482;2022-09-14T00:46:44;25.27;;;14.37;;
4980;SDS011;2507;50.392;7.482;2022-09-14T00:49:12;18.40;;;13.70;;
4980;SDS011;2507;50.392;7.482;2022-09-14T00:51:42;15.43;;;13.37;;
4980;SDS011;2507;50.392;7.482;2022-09-14T00:54:11;15.90;;;14.20;;
4980;SDS011;2507;50.392;7.482;2022-09-14T00:56:36;15.50;;;13.93;;
4980;SDS011;2507;50.392;7.482;2022-09-14T00:59:04;14.97;;;13.30;;
4980;SDS011;2507;50.392;7.482;2022-09-14T01:01:34;17.90;;;14.50;;
4980;SDS011;2507;50.392;7.482;2022-09-14T01:03:59;16.30;;;13.70;;
4980;SDS011;2507;50.392;7.482;2022-09-14T01:06:38;16.23;;;12.80;;
4980;SDS011;2507;50.392;7.482;2022-09-14T01:17:51;15.23;;;13.63;;
4980;SDS011;2507;50.392;7.482;2022-09-14T01:20:34;17.53;;;14.17;;
4980;SDS011;2507;50.392;7.482;2022-09-14T01:31:08;15.73;;;13.33;;
4980;SDS011;2507;50.392;7.482;2022-09-14T01:33:58;14.30;;;12.80;;
4980;SDS011;2507;50.392;7.482;2022-09-14T01:36:30;20.60;;;15.33;;
4980;SDS011;2507;50.392;7.482;2022-09-14T01:38:58;15.47;;;13.77;;
4980;SDS011;2507;50.392;7.482;2022-09-14T01:41:25;17.57;;;14.07;;
4980;SDS011;2507;50.392;7.482;2022-09-14T01:44:41;14.43;;;12.10;;
4980;SDS011;2507;50.392;7.482;2022-09-14T01:46:53;15.27;;;13.63;;
4980;SDS011;2507;50.392;7.482;2022-09-14T01:55:32;13.07;;;11.73;;
4980;SDS011;2507;50.392;7.482;2022-09-14T01:58:04;13.73;;;12.33;;
4980;SDS011;2507;50.392;7.482;2022-09-14T02:00:35;19.40;;;14.60;;
4980;SDS011;2507;50.392;7.482;2022-09-14T02:03:05;18.87;;;13.20;;
4980;SDS011;2507;50.392;7.482;2022-09-14T02:05:59;18.17;;;14.00;;
4980;SDS011;2507;50.392;7.482;2022-09-14T02:08:30;22.63;;;15.27;;
4980;SDS011;2507;50.392;7.482;2022-09-14T02:10:57;19.20;;;15.27;;
4980;SDS011;2507;50.392;7.482;2022-09-14T02:13:23;15.23;;;13.60;;
4980;SDS011;2507;50.392;7.482;2022-09-14T02:15:50;22.20;;;16.80;;
4980;SDS011;2507;50.392;7.482;2022-09-14T02:18:15;19.80;;;15.37;;
4980;SDS011;2507;50.392;7.482;2022-09-14T02:23:12;17.43;;;15.00;;
4980;SDS011;2507;50.392;7.482;2022-09-14T02:25:38;17.43;;;15.30;;
4980;SDS011;2507;50.392;7.482;2022-09-14T02:28:05;20.50;;;16.53;;
4980;SDS011;2507;50.392;7.482;2022-09-14T02:30:32;23.20;;;17.50;;
4980;SDS011;2507;50.392;7.482;2022-09-14T02:33:09;21.40;;;16.57;;
4980;SDS011;2507;50.392;7.482;2022-09-14T02:35:54;23.77;;;17.27;;
4980;SDS011;2507;50.392;7.482;2022-09-14T02:38:29;23.67;;;16.80;;
4980;SDS011;2507;50.392;7.482;2022-09-14T02:41:02;20.50;;;16.10;;
4980;SDS011;2507;50.392;7.482;2022-09-14T02:48:51;22.83;;;17.50;;
4980;SDS011;2507;50.392;7.482;2022-09-14T02:56:23;21.10;;;16.60;;
4980;SDS011;2507;50.392;7.482;2022-09-14T02:58:49;23.90;;;19.07;;
4980;SDS011;2507;50.392;7.482;2022-09-14T03:01:17;23.53;;;18.07;;
4980;SDS011;2507;50.392;7.482;2022-09-14T03:03:44;21.53;;;17.20;;
4980;SDS011;2507;50.392;7.482;2022-09-14T03:06:09;21.37;;;17.20;;
4980;SDS011;2507;50.392;7.482;2022-09-14T03:08:34;27.50;;;18.97;;
4980;SDS011;2507;50.392;7.482;2022-09-14T03:11:00;20.03;;;16.40;;
4980;SDS011;2507;50.392;7.482;2022-09-14T03:13:26;24.57;;;17.70;;
4980;SDS011;2507;50.392;7.482;2022-09-14T03:15:51;21.77;;;17.20;;
4980;SDS011;2507;50.392;7.482;2022-09-14T03:18:17;22.40;;;18.00;;
4980;SDS011;2507;50.392;7.482;2022-09-14T03:20:43;20.23;;;16.00;;
4980;SDS011;2507;50.392;7.482;2022-09-14T03:23:09;20.97;;;16.27;;
4980;SDS011;2507;50.392;7.482;2022-09-14T03:25:35;21.03;;;16.80;;
4980;SDS011;2507;50.392;7.482;2022-09-14T03:28:08;21.63;;;15.30;;
4980;SDS011;2507;50.392;7.482;2022-09-14T03:30:35;20.83;;;16.23;;
4980;SDS011;2507;50.392;7.482;2022-09-14T03:33:00;16.83;;;14.87;;
4980;SDS011;2507;50.392;7.482;2022-09-14T03:35:26;17.23;;;14.20;;
4980;SDS011;2507;50.392;7.482;2022-09-14T03:37:54;16.50;;;13.63;;
4980;SDS011;2507;50.392;7.482;2022-09-14T03:40:19;19.23;;;15.30;;
4980;SDS011;2507;50.392;7.482;2022-09-14T03:42:46;21.57;;;15.43;;
4980;SDS011;2507;50.392;7.482;2022-09-14T03:45:12;14.67;;;12.90;;
4980;SDS011;2507;50.392;7.482;2022-09-14T03:47:39;19.00;;;14.20;;
4980;SDS011;2507;50.392;7.482;2022-09-14T03:50:06;14.40;;;12.90;;
4980;SDS011;2507;50.392;7.482;2022-09-14T03:52:33;17.53;;;13.90;;
4980;SDS011;2507;50.392;7.482;2022-09-14T03:54:59;15.33;;;13.37;;
4980;SDS011;2507;50.392;7.482;2022-09-14T03:57:25;19.60;;;14.70;;
4980;SDS011;2507;50.392;7.482;2022-09-14T03:59:50;16.20;;;13.67;;
4980;SDS011;2507;50.392;7.482;2022-09-14T04:02:15;16.03;;;14.10;;
4980;SDS011;2507;50.392;7.482;2022-09-14T04:04:41;16.00;;;13.13;;
4980;SDS011;2507;50.392;7.482;2022-09-14T04:07:06;17.47;;;13.40;;
4980;SDS011;2507;50.392;7.482;2022-09-14T04:09:31;14.67;;;12.57;;
4980;SDS011;2507;50.392;7.482;2022-09-14T04:11:57;13.90;;;12.37;;
4980;SDS011;2507;50.392;7.482;2022-09-14T04:14:23;17.10;;;12.53;;
4980;SDS011;2507;50.392;7.482;2022-09-14T04:16:49;17.13;;;14.40;;
4980;SDS011;2507;50.392;7.482;2022-09-14T04:19:14;15.10;;;13.30;;
4980;SDS011;2507;50.392;7.482;2022-09-14T04:21:39;15.40;;;13.77;;
4980;SDS011;2507;50.392;7.482;2022-09-14T04:24:05;16.93;;;13.80;;
4980;SDS011;2507;50.392;7.482;2022-09-14T04:26:30;16.33;;;13.40;;
4980;SDS011;2507;50.392;7.482;2022-09-14T04:28:56;15.27;;;13.67;;
4980;SDS011;2507;50.392;7.482;2022-09-14T04:31:23;14.43;;;11.90;;
4980;SDS011;2507;50.392;7.482;2022-09-14T04:33:49;16.53;;;12.83;;
4980;SDS011;2507;50.392;7.482;2022-09-14T04:36:18;17.97;;;11.40;;
4980;SDS011;2507;50.392;7.482;2022-09-14T04:38:46;13.27;;;11.90;;
4980;SDS011;2507;50.392;7.482;2022-09-14T04:41:13;12.00;;;10.70;;
4980;SDS011;2507;50.392;7.482;2022-09-14T04:43:43;15.27;;;13.00;;
4980;SDS011;2507;50.392;7.482;2022-09-14T04:46:10;16.67;;;12.90;;
4980;SDS011;2507;50.392;7.482;2022-09-14T04:48:37;16.00;;;13.50;;
4980;SDS011;2507;50.392;7.482;2022-09-14T04:51:03;15.67;;;12.17;;
4980;SDS011;2507;50.392;7.482;2022-09-14T04:53:49;14.53;;;11.90;;
4980;SDS011;2507;50.392;7.482;2022-09-14T04:56:16;18.03;;;13.33;;
4980;SDS011;2507;50.392;7.482;2022-09-14T04:58:43;14.53;;;11.70;;
4980;SDS011;2507;50.392;7.482;2022-09-14T05:01:11;16.13;;;12.47;;
4980;SDS011;2507;50.392;7.482;2022-09-14T05:03:39;17.13;;;12.20;;
4980;SDS011;2507;50.392;7.482;2022-09-14T05:06:07;13.43;;;11.73;;
4980;SDS011;2507;50.392;7.482;2022-09-14T05:08:36;16.67;;;12.80;;
4980;SDS011;2507;50.392;7.482;2022-09-14T05:11:03;15.50;;;13.23;;
4980;SDS011;2507;50.392;7.482;2022-09-14T05:13:29;20.73;;;16.67;;
4980;SDS011;2507;50.392;7.482;2022-09-14T05:15:59;19.10;;;15.37;;
4980;SDS011;2507;50.392;7.482;2022-09-14T05:18:29;17.40;;;13.23;;
4980;SDS011;2507;50.392;7.482;2022-09-14T05:20:54;14.77;;;13.00;;
4980;SDS011;2507;50.392;7.482;2022-09-14T05:23:20;17.43;;;13.00;;
4980;SDS011;2507;50.392;7.482;2022-09-14T05:25:51;19.23;;;15.53;;
4980;SDS011;2507;50.392;7.482;2022-09-14T05:28:17;18.60;;;14.80;;
4980;SDS011;2507;50.392;7.482;2022-09-14T05:30:42;20.47;;;15.70;;
4980;SDS011;2507;50.392;7.482;2022-09-14T05:33:07;20.83;;;16.13;;
4980;SDS011;2507;50.392;7.482;2022-09-14T05:35:32;18.80;;;14.73;;
4980;SDS011;2507;50.392;7.482;2022-09-14T05:37:58;17.17;;;13.80;;
4980;SDS011;2507;50.392;7.482;2022-09-14T05:40:23;16.70;;;12.93;;
4980;SDS011;2507;50.392;7.482;2022-09-14T05:42:48;19.07;;;14.07;;
4980;SDS011;2507;50.392;7.482;2022-09-14T05:45:13;14.27;;;12.60;;
4980;SDS011;2507;50.392;7.482;2022-09-14T05:47:39;17.17;;;13.90;;
4980;SDS011;2507;50.392;7.482;2022-09-14T05:50:04;15.00;;;12.10;;
4980;SDS011;2507;50.392;7.482;2022-09-14T05:52:32;15.30;;;12.50;;
4980;SDS011;2507;50.392;7.482;2022-09-14T05:54:57;12.27;;;10.97;;
4980;SDS011;2507;50.392;7.482;2022-09-14T05:57:22;12.67;;;10.87;;
4980;SDS011;2507;50.392;7.482;2022-09-14T05:59:48;12.00;;;10.80;;
4980;SDS011;2507;50.392;7.482;2022-09-14T06:02:13;12.17;;;10.97;;
4980;SDS011;2507;50.392;7.482;2022-09-14T06:04:39;11.80;;;10.60;;
4980;SDS011;2507;50.392;7.482;2022-09-14T06:07:04;12.20;;;10.33;;
4980;SDS011;2507;50.392;7.482;2022-09-14T06:09:29;12.03;;;10.80;;
4980;SDS011;2507;50.392;7.482;2022-09-14T06:11:54;10.00;;;9.00;;
4980;SDS011;2507;50.392;7.482;2022-09-14T06:14:20;12.07;;;10.17;;
4980;SDS011;2507;50.392;7.482;2022-09-14T06:16:45;12.30;;;9.57;;
4980;SDS011;2507;50.392;7.482;2022-09-14T06:19:10;10.60;;;9.57;;
4980;SDS011;2507;50.392;7.482;2022-09-14T06:21:38;11.90;;;10.53;;
4980;SDS011;2507;50.392;7.482;2022-09-14T06:24:03;13.70;;;9.60;;
4980;SDS011;2507;50.392;7.482;2022-09-14T06:26:29;10.37;;;9.33;;
4980;SDS011;2507;50.392;7.482;2022-09-14T06:28:55;10.83;;;9.13;;
4980;SDS011;2507;50.392;7.482;2022-09-14T06:31:20;10.70;;;9.57;;
4980;SDS011;2507;50.392;7.482;2022-09-14T06:33:49;10.43;;;9.53;;
4980;SDS011;2507;50.392;7.482;2022-09-14T06:36:16;11.30;;;9.27;;
4980;SDS011;2507;50.392;7.482;2022-09-14T06:38:43;10.07;;;9.00;;
4980;SDS011;2507;50.392;7.482;2022-09-14T06:41:11;10.60;;;9.50;;
4980;SDS011;2507;50.392;7.482;2022-09-14T06:43:38;11.77;;;9.47;;
4980;SDS011;2507;50.392;7.482;2022-09-14T06:46:06;9.67;;;8.77;;
4980;SDS011;2507;50.392;7.482;2022-09-14T06:48:37;8.87;;;8.00;;
4980;SDS011;2507;50.392;7.482;2022-09-14T06:51:16;9.47;;;8.30;;
4980;SDS011;2507;50.392;7.482;2022-09-14T06:53:43;7.50;;;6.90;;
4980;SDS011;2507;50.392;7.482;2022-09-14T06:56:09;8.53;;;7.70;;
4980;SDS011;2507;50.392;7.482;2022-09-14T06:58:35;7.30;;;6.70;;
4980;SDS011;2507;50.392;7.482;2022-09-14T07:01:01;7.97;;;7.20;;
4980;SDS011;2507;50.392;7.482;2022-09-14T07:03:28;8.90;;;7.43;;
4980;SDS011;2507;50.392;7.482;2022-09-14T07:05:59;6.93;;;6.33;;
4980;SDS011;2507;50.392;7.482;2022-09-14T07:08:30;7.60;;;6.63;;
4980;SDS011;2507;50.392;7.482;2022-09-14T07:10:56;7.70;;;6.87;;
4980;SDS011;2507;50.392;7.482;2022-09-14T07:13:22;7.60;;;6.90;;
4980;SDS011;2507;50.392;7.482;2022-09-14T07:15:48;8.17;;;6.83;;
4980;SDS011;2507;50.392;7.482;2022-09-14T07:18:14;7.80;;;7.10;;
4980;SDS011;2507;50.392;7.482;2022-09-14T07:20:39;7.53;;;6.17;;
4980;SDS011;2507;50.392;7.482;2022-09-14T07:23:05;8.67;;;7.10;;
4980;SDS011;2507;50.392;7.482;2022-09-14T07:25:30;7.73;;;6.80;;
4980;SDS011;2507;50.392;7.482;2022-09-14T07:27:55;6.97;;;6.37;;
4980;SDS011;2507;50.392;7.482;2022-09-14T07:30:21;7.17;;;6.47;;
4980;SDS011;2507;50.392;7.482;2022-09-14T07:32:48;6.77;;;6.23;;
4980;SDS011;2507;50.392;7.482;2022-09-14T07:35:14;6.63;;;6.13;;
4980;SDS011;2507;50.392;7.482;2022-09-14T07:37:39;7.83;;;6.30;;
4980;SDS011;2507;50.392;7.482;2022-09-14T07:40:05;7.00;;;6.07;;
4980;SDS011;2507;50.392;7.482;2022-09-14T07:42:30;6.03;;;5.53;;
4980;SDS011;2507;50.392;7.482;2022-09-14T07:44:56;5.80;;;5.40;;
4980;SDS011;2507;50.392;7.482;2022-09-14T07:47:21;8.10;;;4.80;;
4980;SDS011;2507;50.392;7.482;2022-09-14T07:49:46;5.30;;;4.80;;
4980;SDS011;2507;50.392;7.482;2022-09-14T07:52:12;5.60;;;5.07;;
4980;SDS011;2507;50.392;7.482;2022-09-14T07:54:37;4.57;;;4.27;;
4980;SDS011;2507;50.392;7.482;2022-09-14T07:57:03;4.43;;;4.13;;
4980;SDS011;2507;50.392;7.482;2022-09-14T07:59:28;4.67;;;4.33;;
4980;SDS011;2507;50.392;7.482;2022-09-14T08:01:54;8.87;;;7.33;;
4980;SDS011;2507;50.392;7.482;2022-09-14T08:04:19;7.33;;;6.73;;
4980;SDS011;2507;50.392;7.482;2022-09-14T08:06:45;7.23;;;6.60;;
4980;SDS011;2507;50.392;7.482;2022-09-14T08:09:10;6.40;;;5.30;;
4980;SDS011;2507;50.392;7.482;2022-09-14T08:11:36;5.17;;;3.90;;
4980;SDS011;2507;50.392;7.482;2022-09-14T08:14:09;3.37;;;3.17;;
4980;SDS011;2507;50.392;7.482;2022-09-14T08:16:35;4.13;;;3.83;;
4980;SDS011;2507;50.392;7.482;2022-09-14T08:19:03;4.73;;;4.30;;
4980;SDS011;2507;50.392;7.482;2022-09-14T08:21:31;5.00;;;4.10;;
4980;SDS011;2507;50.392;7.482;2022-09-14T08:23:57;3.70;;;3.40;;
4980;SDS011;2507;50.392;7.482;2022-09-14T08:26:24;4.50;;;4.10;;
4980;SDS011;2507;50.392;7.482;2022-09-14T08:28:50;4.53;;;4.13;;
4980;SDS011;2507;50.392;7.482;2022-09-14T08:31:17;3.57;;;3.37;;
4980;SDS011;2507;50.392;7.482;2022-09-14T08:33:44;4.03;;;3.77;;
4980;SDS011;2507;50.392;7.482;2022-09-14T08:36:12;4.07;;;3.77;;
4980;SDS011;2507;50.392;7.482;2022-09-14T08:38:40;4.17;;;3.87;;
4980;SDS011;2507;50.392;7.482;2022-09-14T08:41:10;5.13;;;4.50;;
4980;SDS011;2507;50.392;7.482;2022-09-14T08:43:42;4.50;;;4.10;;
4980;SDS011;2507;50.392;7.482;2022-09-14T08:46:11;6.60;;;3.87;;
4980;SDS011;2507;50.392;7.482;2022-09-14T08:48:45;4.63;;;3.37;;
4980;SDS011;2507;50.392;7.482;2022-09-14T08:51:12;3.33;;;3.07;;
4980;SDS011;2507;50.392;7.482;2022-09-14T08:53:39;3.30;;;2.60;;
4980;SDS011;2507;50.392;7.482;2022-09-14T08:56:11;3.00;;;2.53;;
4980;SDS011;2507;50.392;7.482;2022-09-14T09:04:09;2.00;;;1.90;;
4980;SDS011;2507;50.392;7.482;2022-09-14T09:09:47;4.17;;;2.00;;
4980;SDS011;2507;50.392;7.482;2022-09-14T09:12:17;3.43;;;2.87;;
4980;SDS011;2507;50.392;7.482;2022-09-14T09:14:49;2.60;;;2.40;;
4980;SDS011;2507;50.392;7.482;2022-09-14T09:17:30;3.97;;;2.77;;
4980;SDS011;2507;50.392;7.482;2022-09-14T09:23:01;3.33;;;3.03;;
4980;SDS011;2507;50.392;7.482;2022-09-14T09:28:12;3.77;;;2.27;;
4980;SDS011;2507;50.392;7.482;2022-09-14T09:30:40;1.70;;;1.60;;
4980;SDS011;2507;50.392;7.482;2022-09-14T09:33:06;1.60;;;1.50;;
4980;SDS011;2507;50.392;7.482;2022-09-14T09:35:37;2.80;;;1.80;;
4980;SDS011;2507;50.392;7.482;2022-09-14T09:38:06;2.00;;;1.57;;
4980;SDS011;2507;50.392;7.482;2022-09-14T09:40:38;1.97;;;1.77;;
4980;SDS011;2507;50.392;7.482;2022-09-14T09:43:13;3.07;;;2.77;;
4980;SDS011;2507;50.392;7.482;2022-09-14T09:45:50;3.30;;;3.00;;
4980;SDS011;2507;50.392;7.482;2022-09-14T09:48:16;3.50;;;3.20;;
4980;SDS011;2507;50.392;7.482;2022-09-14T09:50:53;2.83;;;2.10;;
4980;SDS011;2507;50.392;7.482;2022-09-14T09:53:20;2.80;;;2.60;;
4980;SDS011;2507;50.392;7.482;2022-09-14T09:55:47;2.17;;;2.07;;
4980;SDS011;2507;50.392;7.482;2022-09-14T09:58:20;3.60;;;2.53;;
4980;SDS011;2507;50.392;7.482;2022-09-14T10:00:59;2.50;;;2.40;;
4980;SDS011;2507;50.392;7.482;2022-09-14T10:03:28;3.60;;;3.37;;
4980;SDS011;2507;50.392;7.482;2022-09-14T10:06:00;4.00;;;3.70;;
4980;SDS011;2507;50.392;7.482;2022-09-14T10:08:28;4.30;;;3.90;;
4980;SDS011;2507;50.392;7.482;2022-09-14T10:10:58;3.77;;;3.40;;
4980;SDS011;2507;50.392;7.482;2022-09-14T10:13:29;5.80;;;5.30;;
4980;SDS011;2507;50.392;7.482;2022-09-14T10:16:06;4.60;;;4.20;;
4980;SDS011;2507;50.392;7.482;2022-09-14T10:18:41;4.30;;;4.00;;
4980;SDS011;2507;50.392;7.482;2022-09-14T10:21:09;5.50;;;5.00;;
4980;SDS011;2507;50.392;7.482;2022-09-14T10:23:37;5.00;;;4.50;;
4980;SDS011;2507;50.392;7.482;2022-09-14T10:28:34;6.63;;;3.60;;
4980;SDS011;2507;50.392;7.482;2022-09-14T10:31:01;4.33;;;4.00;;
4980;SDS011;2507;50.392;7.482;2022-09-14T10:33:36;6.10;;;4.73;;
4980;SDS011;2507;50.392;7.482;2022-09-14T10:38:55;8.33;;;5.70;;
4980;SDS011;2507;50.392;7.482;2022-09-14T10:41:26;5.23;;;4.83;;
4980;SDS011;2507;50.392;7.482;2022-09-14T10:55:28;7.27;;;6.57;;
4980;SDS011;2507;50.392;7.482;2022-09-14T11:09:25;11.20;;;8.67;;
4980;SDS011;2507;50.392;7.482;2022-09-14T11:14:42;9.63;;;6.87;;
4980;SDS011;2507;50.392;7.482;2022-09-14T11:17:23;7.87;;;7.00;;
4980;SDS011;2507;50.392;7.482;2022-09-14T11:20:21;8.97;;;7.40;;
4980;SDS011;2507;50.392;7.482;2022-09-14T11:23:09;7.10;;;6.40;;
4980;SDS011;2507;50.392;7.482;2022-09-14T11:26:01;6.60;;;6.00;;
4980;SDS011;2507;50.392;7.482;2022-09-14T11:28:45;7.73;;;5.93;;
4980;SDS011;2507;50.392;7.482;2022-09-14T11:31:18;6.20;;;5.60;;
4980;SDS011;2507;50.392;7.482;2022-09-14T11:36:51;7.40;;;5.77;;
4980;SDS011;2507;50.392;7.482;2022-09-14T11:39:24;7.80;;;6.17;;
4980;SDS011;2507;50.392;7.482;2022-09-14T11:42:11;5.80;;;5.30;;
4980;SDS011;2507;50.392;7.482;2022-09-14T11:44:42;6.10;;;5.50;;
4980;SDS011;2507;50.392;7.482;2022-09-14T11:49:55;5.83;;;4.90;;
4980;SDS011;2507;50.392;7.482;2022-09-14T11:52:41;5.87;;;5.37;;
4980;SDS011;2507;50.392;7.482;2022-09-14T11:55:08;4.10;;;3.80;;
4980;SDS011;2507;50.392;7.482;2022-09-14T11:57:39;4.60;;;4.30;;
4980;SDS011;2507;50.392;7.482;2022-09-14T12:00:08;4.70;;;4.30;;
4980;SDS011;2507;50.392;7.482;2022-09-14T12:05:42;4.13;;;3.80;;
4980;SDS011;2507;50.392;7.482;2022-09-14T12:08:53;4.40;;;4.10;;
4980;SDS011;2507;50.392;7.482;2022-09-14T12:13:37;4.07;;;3.87;;
4980;SDS011;2507;50.392;7.482;2022-09-14T12:16:03;3.50;;;3.30;;
4980;SDS011;2507;50.392;7.482;2022-09-14T12:18:30;3.70;;;3.50;;
4980;SDS011;2507;50.392;7.482;2022-09-14T12:23:45;3.60;;;3.30;;
4980;SDS011;2507;50.392;7.482;2022-09-14T12:28:47;3.50;;;3.00;;
4980;SDS011;2507;50.392;7.482;2022-09-14T12:34:04;2.77;;;2.67;;
4980;SDS011;2507;50.392;7.482;2022-09-14T12:51:21;3.47;;;3.27;;
4980;SDS011;2507;50.392;7.482;2022-09-14T13:00:09;4.30;;;4.00;;
4980;SDS011;2507;50.392;7.482;2022-09-14T13:05:28;6.60;;;6.07;;
4980;SDS011;2507;50.392;7.482;2022-09-14T13:07:55;5.40;;;4.40;;
4980;SDS011;2507;50.392;7.482;2022-09-14T13:10:32;5.50;;;4.70;;
4980;SDS011;2507;50.392;7.482;2022-09-14T13:13:00;4.73;;;4.40;;
4980;SDS011;2507;50.392;7.482;2022-09-14T13:15:27;4.43;;;4.03;;
4980;SDS011;2507;50.392;7.482;2022-09-14T13:18:01;5.80;;;5.00;;
4980;SDS011;2507;50.392;7.482;2022-09-14T13:20:48;7.00;;;4.40;;
4980;SDS011;2507;50.392;7.482;2022-09-14T13:23:38;6.67;;;6.00;;
4980;SDS011;2507;50.392;7.482;2022-09-14T13:26:16;6.30;;;5.80;;
4980;SDS011;2507;50.392;7.482;2022-09-14T13:28:45;6.43;;;5.10;;
4980;SDS011;2507;50.392;7.482;2022-09-14T13:31:13;6.83;;;4.70;;
4980;SDS011;2507;50.392;7.482;2022-09-14T13:33:45;5.43;;;4.90;;
4980;SDS011;2507;50.392;7.482;2022-09-14T13:36:14;4.80;;;4.40;;
4980;SDS011;2507;50.392;7.482;2022-09-14T13:38:43;4.40;;;3.97;;
4980;SDS011;2507;50.392;7.482;2022-09-14T13:41:10;6.73;;;5.03;;
4980;SDS011;2507;50.392;7.482;2022-09-14T13:43:43;5.03;;;4.53;;
4980;SDS011;2507;50.392;7.482;2022-09-14T13:46:11;5.90;;;5.33;;
4980;SDS011;2507;50.392;7.482;2022-09-14T13:48:37;12.20;;;6.03;;
4980;SDS011;2507;50.392;7.482;2022-09-14T13:51:04;6.67;;;6.13;;
4980;SDS011;2507;50.392;7.482;2022-09-14T13:53:50;6.90;;;6.20;;
4980;SDS011;2507;50.392;7.482;2022-09-14T13:56:22;4.97;;;4.37;;
4980;SDS011;2507;50.392;7.482;2022-09-14T13:59:11;7.20;;;6.33;;
4980;SDS011;2507;50.392;7.482;2022-09-14T14:01:58;7.00;;;6.30;;
4980;SDS011;2507;50.392;7.482;2022-09-14T14:04:32;7.73;;;7.03;;
4980;SDS011;2507;50.392;7.482;2022-09-14T14:09:39;9.50;;;7.93;;
4980;SDS011;2507;50.392;7.482;2022-09-14T14:12:11;9.50;;;8.60;;
4980;SDS011;2507;50.392;7.482;2022-09-14T14:14:53;11.27;;;8.10;;
4980;SDS011;2507;50.392;7.482;2022-09-14T14:17:21;9.10;;;8.20;;
4980;SDS011;2507;50.392;7.482;2022-09-14T14:19:52;10.27;;;8.90;;
4980;SDS011;2507;50.392;7.482;2022-09-14T14:22:20;9.77;;;8.80;;
4980;SDS011;2507;50.392;7.482;2022-09-14T14:24:52;10.37;;;9.27;;
4980;SDS011;2507;50.392;7.482;2022-09-14T14:27:30;9.80;;;8.80;;
4980;SDS011;2507;50.392;7.482;2022-09-14T14:29:58;9.60;;;8.70;;
4980;SDS011;2507;50.392;7.482;2022-09-14T14:32:25;10.57;;;9.60;;
4980;SDS011;2507;50.392;7.482;2022-09-14T14:34:51;11.57;;;10.20;;
4980;SDS011;2507;50.392;7.482;2022-09-14T14:37:18;12.70;;;11.30;;
4980;SDS011;2507;50.392;7.482;2022-09-14T14:39:44;10.83;;;9.47;;
4980;SDS011;2507;50.392;7.482;2022-09-14T14:42:09;9.87;;;8.87;;
4980;SDS011;2507;50.392;7.482;2022-09-14T14:44:35;9.80;;;8.80;;
4980;SDS011;2507;50.392;7.482;2022-09-14T14:47:00;11.67;;;9.30;;
4980;SDS011;2507;50.392;7.482;2022-09-14T14:49:25;11.60;;;10.00;;
4980;SDS011;2507;50.392;7.482;2022-09-14T14:51:51;10.57;;;8.67;;
4980;SDS011;2507;50.392;7.482;2022-09-14T14:54:17;12.70;;;9.63;;
4980;SDS011;2507;50.392;7.482;2022-09-14T14:56:43;9.67;;;8.77;;
4980;SDS011;2507;50.392;7.482;2022-09-14T15:01:44;8.67;;;7.47;;
4980;SDS011;2507;50.392;7.482;2022-09-14T15:04:10;7.47;;;6.77;;
4980;SDS011;2507;50.392;7.482;2022-09-14T15:06:35;6.60;;;6.10;;
4980;SDS011;2507;50.392;7.482;2022-09-14T15:09:00;6.90;;;6.30;;
4980;SDS011;2507;50.392;7.482;2022-09-14T15:11:25;6.50;;;5.93;;
4980;SDS011;2507;50.392;7.482;2022-09-14T15:13:51;9.30;;;6.43;;
4980;SDS011;2507;50.392;7.482;2022-09-14T15:16:16;7.63;;;6.93;;
4980;SDS011;2507;50.392;7.482;2022-09-14T15:18:42;10.50;;;9.50;;
4980;SDS011;2507;50.392;7.482;2022-09-14T15:21:08;9.40;;;8.47;;
4980;SDS011;2507;50.392;7.482;2022-09-14T15:23:33;10.10;;;9.13;;
4980;SDS011;2507;50.392;7.482;2022-09-14T15:25:59;7.27;;;6.77;;
4980;SDS011;2507;50.392;7.482;2022-09-14T15:28:24;6.43;;;5.80;;
4980;SDS011;2507;50.392;7.482;2022-09-14T15:30:49;8.23;;;5.50;;
4980;SDS011;2507;50.392;7.482;2022-09-14T15:33:15;6.90;;;6.30;;
4980;SDS011;2507;50.392;7.482;2022-09-14T15:35:41;8.13;;;6.63;;
4980;SDS011;2507;50.392;7.482;2022-09-14T15:38:06;7.30;;;6.60;;
4980;SDS011;2507;50.392;7.482;2022-09-14T15:40:32;5.17;;;4.80;;
4980;SDS011;2507;50.392;7.482;2022-09-14T15:42:57;4.23;;;3.83;;
4980;SDS011;2507;50.392;7.482;2022-09-14T15:45:23;4.50;;;4.07;;
4980;SDS011;2507;50.392;7.482;2022-09-14T15:47:48;4.27;;;3.87;;
4980;SDS011;2507;50.392;7.482;2022-09-14T15:50:14;3.17;;;3.00;;
4980;SDS011;2507;50.392;7.482;2022-09-14T15:52:39;3.70;;;3.43;;
4980;SDS011;2507;50.392;7.482;2022-09-14T15:55:06;3.83;;;3.60;;
4980;SDS011;2507;50.392;7.482;2022-09-14T15:57:33;4.77;;;4.37;;
4980;SDS011;2507;50.392;7.482;2022-09-14T15:59:58;3.93;;;3.70;;
4980;SDS011;2507;50.392;7.482;2022-09-14T16:02:23;4.00;;;3.80;;
4980;SDS011;2507;50.392;7.482;2022-09-14T16:04:49;4.47;;;4.17;;
4980;SDS011;2507;50.392;7.482;2022-09-14T16:07:14;3.80;;;3.60;;
4980;SDS011;2507;50.392;7.482;2022-09-14T16:09:40;5.40;;;5.03;;
4980;SDS011;2507;50.392;7.482;2022-09-14T16:12:06;9.47;;;8.60;;
4980;SDS011;2507;50.392;7.482;2022-09-14T16:14:33;11.70;;;10.27;;
4980;SDS011;2507;50.392;7.482;2022-09-14T16:16:59;10.20;;;6.70;;
4980;SDS011;2507;50.392;7.482;2022-09-14T16:19:24;26.40;;;13.70;;
4980;SDS011;2507;50.392;7.482;2022-09-14T16:21:50;7.93;;;6.20;;
4980;SDS011;2507;50.392;7.482;2022-09-14T16:24:16;10.40;;;7.70;;
4980;SDS011;2507;50.392;7.482;2022-09-14T16:26:43;9.43;;;7.30;;
4980;SDS011;2507;50.392;7.482;2022-09-14T16:29:10;14.70;;;9.27;;
4980;SDS011;2507;50.392;7.482;2022-09-14T16:31:38;8.03;;;6.50;;
4980;SDS011;2507;50.392;7.482;2022-09-14T16:34:05;5.50;;;5.10;;
4980;SDS011;2507;50.392;7.482;2022-09-14T16:36:35;6.50;;;5.90;;
4980;SDS011;2507;50.392;7.482;2022-09-14T16:39:03;28.40;;;13.13;;
4980;SDS011;2507;50.392;7.482;2022-09-14T16:41:31;17.40;;;9.10;;
4980;SDS011;2507;50.392;7.482;2022-09-14T16:43:57;8.90;;;8.10;;
4980;SDS011;2507;50.392;7.482;2022-09-14T16:46:24;12.63;;;11.30;;
4980;SDS011;2507;50.392;7.482;2022-09-14T16:48:50;15.63;;;11.77;;
4980;SDS011;2507;50.392;7.482;2022-09-14T16:51:19;11.13;;;10.13;;
4980;SDS011;2507;50.392;7.482;2022-09-14T16:53:48;12.00;;;10.90;;
4980;SDS011;2507;50.392;7.482;2022-09-14T16:56:22;12.17;;;11.00;;
4980;SDS011;2507;50.392;7.482;2022-09-14T16:58:49;11.03;;;10.03;;
4980;SDS011;2507;50.392;7.482;2022-09-14T17:01:17;10.07;;;9.17;;
4980;SDS011;2507;50.392;7.482;2022-09-14T17:04:02;8.83;;;8.03;;
4980;SDS011;2507;50.392;7.482;2022-09-14T17:06:32;9.37;;;8.50;;
4980;SDS011;2507;50.392;7.482;2022-09-14T17:08:59;8.40;;;7.60;;
4980;SDS011;2507;50.392;7.482;2022-09-14T17:11:28;7.97;;;7.40;;
4980;SDS011;2507;50.392;7.482;2022-09-14T17:13:55;8.33;;;7.63;;
4980;SDS011;2507;50.392;7.482;2022-09-14T17:16:22;10.20;;;9.30;;
4980;SDS011;2507;50.392;7.482;2022-09-14T17:18:48;12.43;;;11.30;;
4980;SDS011;2507;50.392;7.482;2022-09-14T17:21:16;9.80;;;9.00;;
4980;SDS011;2507;50.392;7.482;2022-09-14T17:23:43;9.57;;;8.80;;